Hlavní strana
METAR-TAF:

METAR-TAF

Letiště :

Dar es Salaam, Tanzanie

zeměpisná šířka: 06-52S, zeměpisná délka: 039-12E, výška: 55 m

Aktuální stav počasí

Zpráva byla vytvořena před 1 hodinou a 34 minutami, v 03:00 UTC
Bezvětří
Teplota 24°C
Vlhkost vzduchu 100%
Tlak 1014 hPa
Viditelnost 10 km a více
Skoro jasno ve výšce 1200 ft

METAR: HTDA 170300Z 00000KT 9999 FEW012 24/24 Q1014 NOSIG

Čas: 07:34 (04:34 UTC)

Předpověď počasí

Zpráva byla vytvořena před 5 hodinami a 34 minutami, v 23:00 UTC
Předpověď platná od 17 v 00 UTC do 18 v 06 UTC
Severní vítr kt
Viditelnost 10 km a více
Polojasno ve výšce 1400 ft
Dočasný
od 17 v 03 UTC do 17 v 08 UTC
Viditelnost: 8000 m
Oblačno až skoro zataženo ve výšce 1600 ft
déšť
Změna
od 17 v 12 UTC do 17 v 15 UTC
Východní vítr 10 kt
Změna
od 17 v 16 UTC do 17 v 19 UTC
Polojasno ve výšce 1500 ft
Od 17 v 2100 UTC
Severní vítr kt

TAF: HTDA 162300Z 1700/1806 00000KT 9999 SCT014 TEMPO 1703/1708 8000 RA BKN016 BECMG 1712/1715 10010KT BECMG 1716/1719 SCT015 FM172100 00000KT

Stav a předpovědi počasí z více než 4 000 letišť (zprávy METAR a TAF).

Červené a žluté tečky na mapě představují dostupné meteorologické stanice.

Když kurzor umístíte na tečku, zobrazí se název stanice.

Pak kliknutím zobrazíte stav a předpověď počasí.

Chcete-li změnit mapu, kliknutím na zelené tlačítko se znaménkem +mapu přiblížíte, kliknutím na zelené tlačítko se znaménkem – mapu oddálíte a kliknutím na zelené šipky přejdete na sousední mapy.


METAR-TAF: